Time;durP1;ratioP1;P1;durP2;ratioP2;P2;SDS_P1;SDS_P2;PMS_P1;PMS_P2;Temp;Humidity;BMP_temperature;BMP_pressure;BME280_temperature;BME280_humidity;BME280_pressure;Samples;Min_cycle;Max_cycle;Signal;HPM_P1;HPM_P2
2023/09/20 00:00:54;;;;;;;9.63;3.23;;;;;;;18.80;100.00;100802.66;5232884;28;20033;-72
2023/09/20 00:03:25;;;;;;;8.73;3.00;;;;;;;18.77;100.00;100803.78;5232338;28;20041;-78
2023/09/20 00:05:59;;;;;;;11.17;2.47;;;;;;;18.76;100.00;100807.44;5213276;28;20795;-80
2023/09/20 00:08:30;;;;;;;9.63;3.03;;;;;;;18.67;100.00;100810.97;5211995;28;20075;-72
2023/09/20 00:11:02;;;;;;;6.93;3.07;;;;;;;18.72;100.00;100806.03;5214636;28;20117;-75
2023/09/20 00:13:33;;;;;;;6.50;2.70;;;;;;;18.55;100.00;100815.63;5210946;28;20504;-75
2023/09/20 00:16:05;;;;;;;12.07;2.30;;;;;;;18.60;100.00;100803.59;5214434;28;20029;-77
2023/09/20 00:18:37;;;;;;;7.40;2.30;;;;;;;18.52;100.00;100797.34;5231016;28;20674;-77
2023/09/20 00:21:09;;;;;;;11.50;2.93;;;;;;;18.53;100.00;100806.97;5231886;28;20029;-78
2023/09/20 00:23:40;;;;;;;6.43;2.23;;;;;;;18.40;100.00;100796.69;5232370;28;20109;-77
2023/09/20 00:26:13;;;;;;;5.77;2.23;;;;;;;18.54;100.00;100809.47;5230462;28;20022;-75
2023/09/20 00:28:48;;;;;;;6.53;2.50;;;;;;;18.49;100.00;100790.50;5230970;28;20064;-75
2023/09/20 00:31:19;;;;;;;9.70;3.00;;;;;;;18.48;100.00;100794.16;5231982;28;20025;-79
2023/09/20 00:33:52;;;;;;;10.00;2.50;;;;;;;18.50;100.00;100798.31;5231933;28;20033;-75
2023/09/20 00:36:23;;;;;;;7.40;2.30;;;;;;;18.28;100.00;100791.56;5230605;28;20030;-76
2023/09/20 00:38:57;;;;;;;9.17;2.20;;;;;;;18.33;100.00;100797.25;5231767;28;20507;-72
2023/09/20 00:41:28;;;;;;;6.07;2.22;;;;;;;18.38;100.00;100789.72;5232015;28;20049;-76
2023/09/20 00:44:00;;;;;;;7.03;2.60;;;;;;;18.33;100.00;100786.66;5230812;28;20030;-79
2023/09/20 00:46:32;;;;;;;8.10;2.40;;;;;;;18.33;100.00;100786.66;5230011;28;20053;-78
2023/09/20 00:49:03;;;;;;;6.07;3.00;;;;;;;18.35;100.00;100784.69;5231640;28;20033;-73
2023/09/20 00:51:34;;;;;;;13.37;3.87;;;;;;;18.28;100.00;100780.09;5230740;28;20064;-74
2023/09/20 00:54:06;;;;;;;7.07;2.27;;;;;;;18.38;100.00;100781.75;5217455;28;20150;-76
2023/09/20 00:56:39;;;;;;;10.00;2.47;;;;;;;18.35;100.00;100779.41;5210144;28;20029;-78
2023/09/20 00:59:11;;;;;;;8.10;3.87;;;;;;;18.32;100.00;100781.50;5209587;28;20041;-79
2023/09/20 01:01:42;;;;;;;8.47;2.57;;;;;;;18.27;100.00;100781.94;5211466;28;20042;-77
2023/09/20 01:04:14;;;;;;;9.97;2.50;;;;;;;18.34;100.00;100785.69;5210880;28;20079;-73
2023/09/20 01:06:49;;;;;;;8.70;2.60;;;;;;;18.35;100.00;100789.16;5210482;28;20030;-78
2023/09/20 01:09:24;;;;;;;6.07;2.57;;;;;;;18.34;100.00;100790.16;5212835;28;20034;-79
2023/09/20 01:11:57;;;;;;;6.67;2.23;;;;;;;18.27;100.00;100797.84;5209782;28;20026;-75
2023/09/20 01:14:28;;;;;;;6.90;2.30;;;;;;;18.29;100.00;100790.59;5209149;28;20085;-72
2023/09/20 01:17:06;;;;;;;6.43;2.13;;;;;;;18.42;100.00;100784.09;5211068;28;20054;-79
2023/09/20 01:19:38;;;;;;;5.27;2.27;;;;;;;18.34;100.00;100784.84;5211257;28;20026;-75
2023/09/20 01:22:10;;;;;;;4.67;1.87;;;;;;;18.35;100.00;100783.84;5210202;28;20489;-74
2023/09/20 01:24:43;;;;;;;7.73;2.20;;;;;;;18.35;100.00;100787.34;5222225;28;20084;-74
2023/09/20 01:27:15;;;;;;;9.30;2.70;;;;;;;18.31;100.00;100785.16;5231172;28;20034;-70
2023/09/20 01:29:47;;;;;;;6.83;2.27;;;;;;;18.31;100.00;100770.06;5231429;28;20468;-75
2023/09/20 01:32:18;;;;;;;6.47;2.20;;;;;;;18.33;100.00;100778.69;5230979;28;20033;-74
2023/09/20 01:34:49;;;;;;;7.90;2.17;;;;;;;18.31;100.00;100772.69;5215451;28;20034;-72
2023/09/20 01:37:21;;;;;;;5.17;1.83;;;;;;;18.29;100.00;100771.19;5211797;28;20053;-77
2023/09/20 01:39:52;;;;;;;7.07;2.27;;;;;;;18.21;100.00;100766.59;5230033;28;20150;-78
2023/09/20 01:42:23;;;;;;;9.77;2.27;;;;;;;18.26;100.00;100770.50;5231345;28;20040;-74
2023/09/20 01:44:55;;;;;;;6.83;2.20;;;;;;;18.30;100.00;100767.53;5232807;28;20039;-75
2023/09/20 01:47:26;;;;;;;11.40;3.00;;;;;;;18.29;100.00;100769.38;5231196;28;20083;-79
2023/09/20 01:49:59;;;;;;;5.77;2.00;;;;;;;18.24;100.00;100766.31;5227474;28;20030;-78
2023/09/20 01:52:30;;;;;;;8.03;2.50;;;;;;;18.25;100.00;100752.09;5214078;28;20088;-71
2023/09/20 01:55:02;;;;;;;8.90;2.17;;;;;;;18.16;100.00;100747.66;5217041;28;20393;-78
2023/09/20 01:57:34;;;;;;;7.20;2.67;;;;;;;18.30;100.00;100760.44;5229134;28;20033;-76
2023/09/20 02:00:16;;;;;;;10.40;2.40;;;;;;;18.30;100.00;100760.44;5235385;28;20456;-78
2023/09/20 02:02:53;;;;;;;9.23;2.57;;;;;;;18.35;100.00;100750.25;5235934;28;20041;-77
2023/09/20 02:05:26;;;;;;;6.70;1.97;;;;;;;18.37;100.00;100744.78;5235447;28;20032;-79
2023/09/20 02:07:57;;;;;;;4.43;1.90;;;;;;;18.31;100.00;100727.63;5234010;28;20087;-75
2023/09/20 02:10:29;;;;;;;7.30;2.83;;;;;;;18.38;100.00;100734.03;5234467;28;20033;-79
2023/09/20 02:13:00;;;;;;;9.67;2.90;;;;;;;18.34;100.00;100724.72;5249815;28;20045;-74
2023/09/20 02:15:36;;;;;;;7.90;2.37;;;;;;;18.44;100.00;100731.78;5234591;28;20116;-75
2023/09/20 02:18:09;;;;;;;7.07;3.17;;;;;;;18.43;100.00;100735.41;5234753;28;20029;-77
2023/09/20 02:20:40;;;;;;;9.17;2.67;;;;;;;18.44;100.00;100723.81;5233729;28;20029;-79
2023/09/20 02:23:12;;;;;;;6.23;2.10;;;;;;;18.45;100.00;100726.31;5233844;28;20083;-79
2023/09/20 02:25:43;;;;;;;6.03;2.40;;;;;;;18.46;100.00;100728.00;5234660;28;20113;-71
2023/09/20 02:28:15;;;;;;;5.87;2.37;;;;;;;18.43;100.00;100728.28;5234516;28;20029;-78
2023/09/20 02:30:50;;;;;;;7.77;2.37;;;;;;;18.47;100.00;100718.22;5233755;28;20034;-78
2023/09/20 02:33:21;;;;;;;6.73;2.80;;;;;;;18.41;100.00;100713.50;5234413;28;20033;-78
2023/09/20 02:35:53;;;;;;;6.50;2.73;;;;;;;18.45;100.00;100720.22;5233559;28;20047;-78
2023/09/20 02:38:25;;;;;;;7.00;2.37;;;;;;;18.46;100.00;100716.56;5233545;28;20045;-80
2023/09/20 02:40:58;;;;;;;8.97;2.87;;;;;;;18.41;100.00;100724.13;5234711;28;20064;-79
2023/09/20 02:43:30;;;;;;;8.30;2.70;;;;;;;18.46;100.00;100719.22;5232331;28;20369;-80
2023/09/20 02:46:05;;;;;;;7.00;2.30;;;;;;;18.46;100.00;100711.25;5233835;28;20044;-78
2023/09/20 02:48:36;;;;;;;7.73;2.77;;;;;;;18.46;100.00;100708.59;5234152;28;20034;-75
2023/09/20 02:51:07;;;;;;;10.67;3.50;;;;;;;18.44;100.00;100713.22;5232768;28;20384;-76
2023/09/20 02:53:39;;;;;;;5.47;2.13;;;;;;;18.41;100.00;100695.81;5233590;28;20131;-79
2023/09/20 02:56:10;;;;;;;6.90;3.03;;;;;;;18.42;100.00;100699.25;5234168;28;20033;-79
2023/09/20 02:58:42;;;;;;;9.33;2.77;;;;;;;18.38;100.00;100696.91;5233760;28;20033;-80
2023/09/20 03:01:16;;;;;;;6.87;3.23;;;;;;;18.41;100.00;100701.09;5232985;28;20499;-73
2023/09/20 03:03:47;;;;;;;7.38;3.25;;;;;;;18.34;100.00;100692.06;5232272;28;20025;-75
2023/09/20 03:06:18;;;;;;;7.33;2.80;;;;;;;18.35;100.00;100699.03;5232287;28;20036;-78
2023/09/20 03:08:51;;;;;;;7.10;2.60;;;;;;;18.29;100.00;100692.50;5235214;28;20029;-79
2023/09/20 03:11:24;;;;;;;7.90;2.50;;;;;;;18.27;100.00;100691.81;5232785;28;20454;-75
2023/09/20 03:13:56;;;;;;;9.25;2.38;;;;;;;18.25;100.00;100685.81;5233866;28;20132;-77
2023/09/20 03:16:27;;;;;;;8.67;3.10;;;;;;;18.25;100.00;100683.16;5232370;28;20029;-76
2023/09/20 03:18:58;;;;;;;10.37;3.07;;;;;;;18.25;100.00;100683.16;5231707;28;20022;-78
2023/09/20 03:21:30;;;;;;;6.00;1.73;;;;;;;18.20;100.00;100677.47;5232366;28;20100;-78
2023/09/20 03:24:08;;;;;;;7.03;2.33;;;;;;;18.21;100.00;100671.19;5232607;28;20033;-73
2023/09/20 03:26:40;;;;;;;10.40;3.77;;;;;;;18.22;100.00;100670.22;5232990;28;20030;-76
2023/09/20 03:29:11;;;;;;;7.47;2.63;;;;;;;18.11;100.00;100663.25;5233098;28;20040;-77
2023/09/20 03:31:43;;;;;;;4.87;2.13;;;;;;;18.16;100.00;100665.47;5220899;28;20030;-74
2023/09/20 03:34:14;;;;;;;10.80;2.57;;;;;;;18.07;100.00;100665.34;5223018;28;20037;-80
2023/09/20 03:36:46;;;;;;;10.10;3.00;;;;;;;18.13;100.00;100671.91;5229775;28;20095;-79
2023/09/20 03:39:22;;;;;;;8.30;2.80;;;;;;;18.05;100.00;100680.56;5232096;28;20048;-78
2023/09/20 03:41:55;;;;;;;10.83;2.80;;;;;;;17.99;100.00;100681.16;5233301;28;20029;-75
2023/09/20 03:44:27;;;;;;;5.37;2.40;;;;;;;17.95;100.00;100682.41;5232399;28;20041;-74
2023/09/20 03:46:59;;;;;;;7.23;2.50;;;;;;;17.94;100.00;100672.81;5230901;28;20123;-74
2023/09/20 03:49:30;;;;;;;11.03;2.90;;;;;;;17.89;100.00;100678.56;5232435;28;20033;-71
2023/09/20 03:52:02;;;;;;;8.13;2.47;;;;;;;17.84;100.00;100671.00;5230625;28;20030;-77
2023/09/20 03:54:34;;;;;;;7.63;2.67;;;;;;;17.85;100.00;100682.44;5232153;28;20043;-76
2023/09/20 03:57:07;;;;;;;6.10;2.53;;;;;;;17.81;100.00;100673.97;5232251;28;20037;-78
2023/09/20 03:59:41;;;;;;;5.28;2.47;;;;;;;17.86;100.00;100674.34;5221567;28;20031;-72
2023/09/20 04:02:14;;;;;;;8.55;3.00;;;;;;;17.84;100.00;100670.19;5220892;28;20084;-76
2023/09/20 04:04:46;;;;;;;7.40;3.60;;;;;;;17.77;100.00;100673.41;5210803;28;20034;-76
2023/09/20 04:07:23;;;;;;;7.70;2.83;;;;;;;17.80;100.00;100677.59;5221747;28;20582;-70
2023/09/20 04:09:54;;;;;;;6.27;2.67;;;;;;;17.76;100.00;100673.56;5215568;28;20361;-81
2023/09/20 04:12:26;;;;;;;5.57;2.60;;;;;;;17.77;100.00;100678.72;5210859;28;20032;-81
2023/09/20 04:14:57;;;;;;;8.73;2.70;;;;;;;17.72;100.00;100682.75;5211754;28;20120;-76
2023/09/20 04:17:28;;;;;;;9.83;2.77;;;;;;;17.64;100.00;100664.94;5231454;28;20037;-77
2023/09/20 04:20:06;;;;;;;8.60;3.40;;;;;;;17.53;100.00;100663.28;5232569;28;20056;-77
2023/09/20 04:22:40;;;;;;;6.87;2.50;;;;;;;17.60;100.00;100661.75;5231649;28;20373;-80
2023/09/20 04:25:12;;;;;;;8.57;2.80;;;;;;;17.58;100.00;100655.75;5231923;28;20037;-80
2023/09/20 04:27:43;;;;;;;10.90;2.77;;;;;;;17.59;100.00;100657.44;5232002;28;20049;-75
2023/09/20 04:30:15;;;;;;;7.70;2.67;;;;;;;17.54;100.00;100657.03;5229001;28;20746;-80
2023/09/20 04:32:48;;;;;;;5.83;2.57;;;;;;;17.56;100.00;100646.31;5210927;28;20088;-72
2023/09/20 04:35:19;;;;;;;10.37;3.53;;;;;;;17.58;100.00;100645.16;5210533;28;20022;-79
2023/09/20 04:37:50;;;;;;;6.80;2.50;;;;;;;17.56;100.00;100641.81;5211571;28;20055;-80
2023/09/20 04:40:21;;;;;;;7.80;2.73;;;;;;;17.50;100.00;100634.47;5219768;28;20094;-74
2023/09/20 04:42:53;;;;;;;8.87;2.87;;;;;;;17.51;100.00;100634.31;5241059;28;20022;-75
2023/09/20 04:45:25;;;;;;;7.20;2.20;;;;;;;17.45;100.00;100628.75;5231523;28;20060;-78
2023/09/20 04:47:57;;;;;;;8.80;3.17;;;;;;;17.32;100.00;100629.03;5229797;28;20776;-78
2023/09/20 04:50:28;;;;;;;11.13;3.97;;;;;;;17.45;100.00;100642.00;5229411;28;20022;-76
2023/09/20 04:52:59;;;;;;;4.90;2.57;;;;;;;17.45;100.00;100634.06;5232277;28;20116;-73
2023/09/20 04:55:34;;;;;;;8.93;3.90;;;;;;;17.40;100.00;100640.59;5216930;28;20030;-75
2023/09/20 04:58:06;;;;;;;9.98;3.05;;;;;;;17.45;100.00;100634.06;5211124;28;20030;-76
2023/09/20 05:00:37;;;;;;;7.43;3.03;;;;;;;17.41;100.00;100641.44;5209202;28;20701;-76
2023/09/20 05:03:11;;;;;;;13.03;3.47;;;;;;;17.35;100.00;100637.53;5210074;28;20093;-76
2023/09/20 05:05:44;;;;;;;6.40;2.72;;;;;;;17.38;100.00;100624.03;5210941;28;20679;-76
2023/09/20 05:08:18;;;;;;;9.73;3.88;;;;;;;17.34;100.00;100621.81;5227018;28;20094;-74
2023/09/20 05:10:49;;;;;;;8.20;2.70;;;;;;;17.34;100.00;100627.09;5211359;28;20108;-77
2023/09/20 05:13:20;;;;;;;6.33;2.93;;;;;;;17.33;100.00;100628.09;5219369;28;20551;-77
2023/09/20 05:15:52;;;;;;;12.60;3.53;;;;;;;17.15;100.00;100629.66;5231316;28;20052;-77
2023/09/20 05:18:23;;;;;;;12.47;2.97;;;;;;;17.28;100.00;100623.19;5229631;28;20036;-71
2023/09/20 05:20:54;;;;;;;6.40;2.80;;;;;;;17.30;100.00;100631.84;5230417;28;20033;-76
2023/09/20 05:23:26;;;;;;;7.57;2.90;;;;;;;17.28;100.00;100634.63;5232151;28;20025;-73
2023/09/20 05:25:57;;;;;;;6.87;3.10;;;;;;;17.33;100.00;100639.50;5236013;28;20613;-74
2023/09/20 05:28:29;;;;;;;8.83;3.10;;;;;;;17.24;100.00;100632.41;5234674;28;20087;-71
2023/09/20 05:31:00;;;;;;;12.07;3.50;;;;;;;17.26;100.00;100631.28;5230188;28;20037;-72
2023/09/20 05:33:32;;;;;;;9.20;2.73;;;;;;;17.25;100.00;100623.50;5224095;28;20170;-72
2023/09/20 05:36:05;;;;;;;8.57;3.43;;;;;;;17.14;100.00;100609.44;5234795;28;20124;-73
2023/09/20 05:38:36;;;;;;;11.13;2.90;;;;;;;17.22;100.00;100618.50;5235367;28;20133;-73
2023/09/20 05:41:10;;;;;;;5.70;2.57;;;;;;;17.26;100.00;100619.88;5239805;28;20059;-72
2023/09/20 05:43:42;;;;;;;9.38;3.15;;;;;;;17.19;100.00;100614.31;5236322;28;20507;-74
2023/09/20 05:46:14;;;;;;;9.23;3.03;;;;;;;17.15;100.00;100618.22;5235106;28;20299;-73
2023/09/20 05:48:46;;;;;;;7.50;2.60;;;;;;;17.10;100.00;100610.72;5235083;28;20030;-71
2023/09/20 05:51:17;;;;;;;7.37;2.73;;;;;;;17.14;100.00;100617.38;5232517;28;20152;-71
2023/09/20 05:53:49;;;;;;;5.87;2.23;;;;;;;17.24;100.00;100616.53;5233030;28;20408;-70
2023/09/20 05:56:20;;;;;;;7.10;2.77;;;;;;;17.11;100.00;100612.38;5234286;28;20523;-73
2023/09/20 05:58:53;;;;;;;6.40;2.17;;;;;;;17.19;100.00;100622.25;5234988;28;20046;-73
2023/09/20 06:01:24;;;;;;;8.63;3.00;;;;;;;17.17;100.00;100619.72;5232789;28;20040;-73
2023/09/20 06:03:58;;;;;;;11.60;3.43;;;;;;;17.21;100.00;100622.13;5235272;28;20030;-72
2023/09/20 06:06:30;;;;;;;10.18;2.25;;;;;;;17.20;100.00;100626.56;5232736;28;20105;-70
2023/09/20 06:09:01;;;;;;;13.50;3.40;;;;;;;17.23;100.00;100625.44;5233973;28;20449;-72
2023/09/20 06:11:32;;;;;;;7.73;2.50;;;;;;;17.25;100.00;100623.50;5226691;28;20036;-72
2023/09/20 06:14:08;;;;;;;5.93;2.53;;;;;;;17.29;100.00;100616.94;5232512;28;20044;-74
2023/09/20 06:16:39;;;;;;;10.57;4.10;;;;;;;17.28;100.00;100620.56;5233808;28;20029;-72
2023/09/20 06:19:10;;;;;;;8.97;3.47;;;;;;;17.25;100.00;100613.75;5216343;28;20045;-73
2023/09/20 06:21:43;;;;;;;6.93;2.37;;;;;;;17.31;100.00;100606.22;5232015;28;20796;-71
2023/09/20 06:24:15;;;;;;;8.33;2.70;;;;;;;17.38;100.00;100612.63;5233281;28;20056;-71
2023/09/20 06:26:47;;;;;;;6.63;3.10;;;;;;;17.36;100.00;100609.28;5233713;28;20380;-72
2023/09/20 06:29:18;;;;;;;9.07;3.03;;;;;;;17.38;100.00;100610.81;5231139;28;20037;-73
2023/09/20 06:31:49;;;;;;;7.57;2.73;;;;;;;17.36;100.00;100614.56;5232601;28;20087;-76
2023/09/20 06:34:24;;;;;;;9.13;3.13;;;;;;;17.42;100.00;100612.19;5219027;28;20053;-77
2023/09/20 06:36:55;;;;;;;9.40;2.90;;;;;;;17.48;100.00;100615.22;5212088;28;20581;-74
2023/09/20 06:39:27;;;;;;;5.63;2.67;;;;;;;17.50;100.00;100616.78;5232465;28;20056;-74
2023/09/20 06:41:58;;;;;;;6.83;2.10;;;;;;;17.51;100.00;100613.13;5232579;28;20037;-75
2023/09/20 06:44:35;;;;;;;11.93;2.97;;;;;;;17.64;100.00;100606.69;5225661;28;20079;-74
2023/09/20 06:47:08;;;;;;;7.70;2.40;;;;;;;17.68;100.00;100623.13;5226597;28;20360;-75
2023/09/20 06:49:39;;;;;;;5.53;2.43;;;;;;;17.69;100.00;100611.53;5231716;28;20021;-75
2023/09/20 06:52:11;;;;;;;7.17;2.83;;;;;;;17.77;100.00;100609.00;5229825;28;20026;-75
2023/09/20 06:54:42;;;;;;;8.10;3.43;;;;;;;17.87;100.00;100615.09;5221816;28;20056;-74
2023/09/20 06:57:18;;;;;;;5.90;2.53;;;;;;;17.94;100.00;100623.31;5210307;28;20745;-72
2023/09/20 06:59:54;;;;;;;11.90;3.30;;;;;;;17.99;100.00;100617.56;5231587;28;20029;-72
2023/09/20 07:02:26;;;;;;;6.53;2.20;;;;;;;18.04;100.00;100617.97;5233472;28;20124;-71
2023/09/20 07:04:58;;;;;;;8.33;2.10;;;;;;;18.08;100.00;100618.50;5230726;28;20026;-73
2023/09/20 07:07:29;;;;;;;10.00;3.63;;;;;;;18.19;100.00;100607.72;5231236;28;20678;-72
2023/09/20 07:10:01;;;;;;;5.03;2.27;;;;;;;18.25;100.00;100611.59;5229946;28;20061;-72
2023/09/20 07:12:34;;;;;;;10.57;2.47;;;;;;;18.35;100.00;100606.22;5209973;28;20113;-71
2023/09/20 07:15:06;;;;;;;5.57;2.00;;;;;;;18.40;100.00;100603.16;5210571;28;20032;-75
2023/09/20 07:17:40;;;;;;;7.53;2.20;;;;;;;18.41;100.00;100603.00;5211555;28;20445;-72
2023/09/20 07:20:17;;;;;;;5.97;2.22;;;;;;;18.44;100.00;100593.91;5211548;28;20021;-76
2023/09/20 07:22:49;;;;;;;9.43;3.47;;;;;;;18.54;100.00;100602.63;5228040;28;20496;-72
2023/09/20 07:25:22;;;;;;;7.20;2.10;;;;;;;18.64;100.00;100604.38;5232994;28;20108;-75
2023/09/20 07:27:55;;;;;;;6.33;2.40;;;;;;;18.74;100.00;100607.78;5227852;28;20710;-75
2023/09/20 07:30:31;;;;;;;8.57;2.70;;;;;;;18.78;100.00;100589.75;5232805;28;20112;-74
2023/09/20 07:33:02;;;;;;;5.67;1.93;;;;;;;18.85;100.00;100607.53;5231243;28;20040;-73
2023/09/20 07:35:39;;;;;;;6.73;1.93;;;;;;;18.96;100.00;100606.47;5231390;28;20037;-76
2023/09/20 07:38:17;;;;;;;7.70;2.40;;;;;;;19.04;100.00;100616.31;5232653;28;20057;-76
2023/09/20 07:40:50;;;;;;;5.57;2.63;;;;;;;19.07;100.00;100616.03;5231521;28;20437;-73
2023/09/20 07:43:21;;;;;;;11.13;3.50;;;;;;;19.18;100.00;100614.16;5230164;28;20132;-74
2023/09/20 07:45:54;;;;;;;8.43;1.87;;;;;;;19.36;100.00;100611.44;5230438;28;20115;-74
2023/09/20 07:48:27;;;;;;;7.27;2.20;;;;;;;19.33;100.00;100617.91;5213196;28;20488;-75
2023/09/20 07:50:59;;;;;;;11.30;3.80;;;;;;;19.45;100.00;100620.28;5210754;28;20133;-73
2023/09/20 07:53:30;;;;;;;6.20;2.60;;;;;;;19.53;100.00;100627.50;5226109;28;20037;-70
2023/09/20 07:56:03;;;;;;;8.30;2.43;;;;;;;19.76;100.00;100617.13;5247631;28;20029;-76
2023/09/20 07:58:40;;;;;;;6.97;2.03;;;;;;;19.83;100.00;100606.72;5232243;28;20059;-74
2023/09/20 08:01:21;;;;;;;4.77;2.30;;;;;;;19.92;100.00;100611.06;5232142;28;20033;-78
2023/09/20 08:03:58;;;;;;;7.13;2.60;;;;;;;20.20;100.00;100599.41;5233009;28;20039;-71
2023/09/20 08:06:36;;;;;;;5.90;2.50;;;;;;;20.24;100.00;100597.25;5229568;28;20484;-74
2023/09/20 08:09:08;;;;;;;6.30;2.40;;;;;;;20.60;100.00;100594.31;5233476;28;20033;-78
2023/09/20 08:11:39;;;;;;;10.47;2.63;;;;;;;20.90;100.00;100613.31;5229956;28;20357;-78
2023/09/20 08:14:10;;;;;;;6.73;3.33;;;;;;;21.02;100.00;100607.66;5230358;28;20487;-75
2023/09/20 08:16:42;;;;;;;7.13;2.37;;;;;;;21.67;100.00;100613.06;5230984;28;20033;-78
2023/09/20 08:19:20;;;;;;;7.47;2.88;;;;;;;22.42;100.00;100612.75;5227142;28;20069;-77
2023/09/20 08:21:53;;;;;;;8.88;2.30;;;;;;;23.00;100.00;100618.69;5229673;28;20373;-76
2023/09/20 09:01:16;;;;;;;5.80;2.17;;;;;;;24.66;79.26;100623.94;5238292;28;20029;-71
2023/09/20 09:03:48;;;;;;;6.53;2.35;;;;;;;24.59;80.45;100634.59;5253917;28;20025;-73
2023/09/20 09:06:19;;;;;;;5.30;2.35;;;;;;;24.59;79.34;100629.25;5236972;28;20104;-72
2023/09/20 09:08:51;;;;;;;7.03;2.15;;;;;;;24.28;78.60;100623.16;5238829;28;20033;-72
2023/09/20 09:11:24;;;;;;;4.57;2.78;;;;;;;24.03;80.32;100625.31;5238788;28;20087;-72
2023/09/20 09:14:00;;;;;;;8.50;2.43;;;;;;;23.72;82.37;100634.38;5239371;28;20069;-73
2023/09/20 09:16:33;;;;;;;3.67;1.77;;;;;;;23.35;87.02;100620.84;5239367;28;20346;-73
2023/09/20 09:19:04;;;;;;;8.07;2.67;;;;;;;23.16;90.93;100623.06;5239773;28;20021;-73
2023/09/20 09:21:36;;;;;;;3.90;1.85;;;;;;;23.21;90.96;100618.81;5238307;28;20409;-71
2023/09/20 09:24:07;;;;;;;5.65;2.25;;;;;;;23.03;92.87;100626.31;5239015;28;20547;-72
2023/09/20 09:26:38;;;;;;;7.63;2.10;;;;;;;23.05;94.95;100617.13;5237393;28;20033;-72
2023/09/20 09:29:16;;;;;;;4.35;2.00;;;;;;;23.13;93.48;100621.56;5237898;28;20555;-73
2023/09/20 09:31:49;;;;;;;5.55;1.80;;;;;;;23.00;92.62;100613.34;5237349;28;20587;-73
2023/09/20 09:34:20;;;;;;;5.55;1.90;;;;;;;23.16;92.63;100610.50;5236599;28;20049;-73
2023/09/20 09:36:53;;;;;;;5.70;2.13;;;;;;;23.32;91.71;100625.56;5253492;28;20038;-72
2023/09/20 09:39:25;;;;;;;9.75;2.25;;;;;;;23.47;89.39;100602.56;5236249;28;20040;-73
2023/09/20 09:41:57;;;;;;;5.05;1.60;;;;;;;23.64;86.41;100611.22;5236238;28;20021;-72
2023/09/20 09:44:28;;;;;;;6.82;2.17;;;;;;;23.79;84.50;100613.91;5236034;28;20025;-73
2023/09/20 09:46:59;;;;;;;4.88;1.77;;;;;;;23.92;84.52;100607.88;5237436;28;20396;-72
2023/09/20 09:49:31;;;;;;;7.45;1.85;;;;;;;24.10;82.10;100599.47;5251827;28;20021;-72
2023/09/20 09:52:03;;;;;;;6.82;1.83;;;;;;;24.10;80.67;100604.81;5237534;28;20026;-73
2023/09/20 09:54:35;;;;;;;5.35;1.85;;;;;;;24.02;81.27;100603.06;5235769;28;20037;-73
2023/09/20 09:57:06;;;;;;;5.43;2.00;;;;;;;24.19;82.82;100602.06;5237612;28;20388;-73
2023/09/20 09:59:39;;;;;;;6.65;2.30;;;;;;;23.80;83.39;100584.31;5237201;28;20048;-72
2023/09/20 10:02:17;;;;;;;4.80;2.33;;;;;;;24.14;79.20;100590.03;5237157;28;20469;-72
2023/09/20 10:05:02;;;;;;;8.25;2.72;;;;;;;24.36;80.56;100589.25;5235142;28;20080;-72
2023/09/20 10:07:38;;;;;;;4.03;2.08;;;;;;;24.31;79.40;100575.63;5237159;28;20029;-73
2023/09/20 10:10:12;;;;;;;5.03;2.08;;;;;;;24.25;76.49;100582.56;5230573;28;20045;-72
2023/09/20 10:12:45;;;;;;;;;;;;;;;24.95;75.21;100589.19;5234021;28;20079;-72
2023/09/20 10:15:18;;;;;;;3.78;1.98;;;;;;;24.15;79.32;100586.34;5234006;28;19924;-74
2023/09/20 10:17:59;;;;;;;5.32;1.35;;;;;;;24.62;75.99;100586.03;5233034;28;20789;-69
2023/09/20 10:21:00;;;;;;;6.95;1.83;;;;;;;25.27;71.62;100586.13;5232171;28;20484;-73
2023/09/20 10:23:35;;;;;;;5.90;1.38;;;;;;;25.29;66.18;100574.16;5231481;28;20099;-71
2023/09/20 10:26:15;;;;;;;3.92;2.00;;;;;;;25.61;66.66;100577.22;5232942;28;20026;-72
2023/09/20 10:28:47;;;;;;;3.95;1.50;;;;;;;25.31;64.62;100577.47;5233269;28;20044;-72
2023/09/20 10:31:20;;;;;;;4.97;1.50;;;;;;;25.23;66.07;100580.31;5233589;28;20104;-73
2023/09/20 10:33:55;;;;;;;4.80;1.42;;;;;;;25.08;65.40;100572.41;5234171;28;20045;-74
2023/09/20 10:36:30;;;;;;;4.18;1.45;;;;;;;25.22;67.57;100576.00;5232216;28;20021;-71
2023/09/20 10:39:16;;;;;;;3.42;1.10;;;;;;;25.39;67.71;100555.06;5233983;28;20036;-71
2023/09/20 10:41:50;;;;;;;6.50;1.55;;;;;;;25.09;65.36;100558.81;5233552;28;20033;-72
2023/09/20 10:44:28;;;;;;;5.70;1.98;;;;;;;25.12;65.74;100550.38;5233651;28;20053;-71
2023/09/20 10:47:06;;;;;;;3.47;1.23;;;;;;;24.99;66.60;100545.75;5233453;28;20604;-71
2023/09/20 10:49:41;;;;;;;3.05;1.50;;;;;;;24.73;69.64;100543.69;5232777;28;20148;-71
2023/09/20 10:52:32;;;;;;;4.05;1.02;;;;;;;25.23;66.89;100554.34;5233381;28;20033;-72
2023/09/20 10:55:20;;;;;;;5.47;1.20;;;;;;;24.97;68.59;100552.31;5220528;28;20053;-71
2023/09/20 10:57:53;;;;;;;7.00;1.90;;;;;;;24.75;70.13;100547.81;5230562;28;20033;-69
2023/09/20 11:00:30;;;;;;;5.95;1.33;;;;;;;24.48;71.24;100541.41;5232735;28;20056;-69
2023/09/20 11:03:06;;;;;;;5.97;1.38;;;;;;;24.82;69.69;100542.50;5233044;28;20538;-74
2023/09/20 11:05:39;;;;;;;3.35;1.23;;;;;;;24.74;69.84;100539.97;5232522;28;20036;-73
2023/09/20 11:08:13;;;;;;;4.95;1.45;;;;;;;24.77;70.31;100540.41;5232928;28;20025;-73
2023/09/20 11:10:46;;;;;;;3.55;1.10;;;;;;;24.56;70.19;100533.22;5233263;28;20037;-73
2023/09/20 11:13:20;;;;;;;3.85;1.05;;;;;;;24.40;74.31;100529.00;5232907;28;20495;-73
2023/09/20 11:15:54;;;;;;;;;;;;;;;25.18;66.17;100545.25;5233787;28;20049;-72
2023/09/20 11:18:25;;;;;;;5.25;1.55;;;;;;;24.44;69.57;100529.41;5232282;28;20382;-73
2023/09/20 11:20:58;;;;;;;4.18;1.30;;;;;;;24.40;71.51;100529.81;5230077;28;20041;-72
2023/09/20 11:23:30;;;;;;;4.10;1.23;;;;;;;24.42;74.70;100540.31;5233135;28;20748;-72
2023/09/20 11:26:04;;;;;;;3.80;1.10;;;;;;;24.40;67.86;100524.44;5232084;28;20057;-72
2023/09/20 11:28:37;;;;;;;5.32;1.48;;;;;;;24.33;69.60;100534.25;5232427;28;20547;-73
2023/09/20 11:31:30;;;;;;;5.93;1.50;;;;;;;24.37;70.61;100532.88;5231861;28;20030;-73
2023/09/20 11:34:04;;;;;;;2.78;1.10;;;;;;;24.36;69.48;100533.91;5230098;28;20048;-72
2023/09/20 11:36:37;;;;;;;4.30;1.42;;;;;;;24.36;69.81;100528.56;5230473;28;20730;-73
2023/09/20 11:39:09;;;;;;;3.75;1.00;;;;;;;24.27;70.07;100524.34;5232071;28;20048;-71
2023/09/20 11:41:45;;;;;;;5.22;1.45;;;;;;;24.19;74.07;100540.53;5231753;28;20026;-71
2023/09/20 11:44:20;;;;;;;3.55;1.50;;;;;;;24.34;73.17;100541.28;5232751;28;20564;-72
2023/09/20 11:46:55;;;;;;;4.18;1.65;;;;;;;24.25;72.53;100534.41;5247150;28;20388;-72
2023/09/20 11:49:27;;;;;;;7.78;1.73;;;;;;;23.85;72.00;100519.56;5231227;28;20439;-73
2023/09/20 11:52:00;;;;;;;6.13;1.83;;;;;;;24.00;71.61;100540.09;5232563;28;20684;-73
2023/09/20 11:54:34;;;;;;;5.57;1.38;;;;;;;24.10;72.19;100529.09;5231881;28;20064;-72
2023/09/20 11:57:06;;;;;;;5.18;1.83;;;;;;;24.12;71.50;100533.22;5232339;28;20029;-72
2023/09/20 11:59:41;;;;;;;4.43;1.30;;;;;;;24.26;72.59;100528.03;5232112;28;20079;-72
2023/09/20 12:02:12;;;;;;;4.75;1.27;;;;;;;24.21;70.34;100541.16;5232108;28;20025;-72
2023/09/20 12:04:44;;;;;;;6.32;2.30;;;;;;;24.16;69.46;100526.47;5245125;28;20080;-72
2023/09/20 12:07:16;;;;;;;4.57;1.75;;;;;;;24.12;69.80;100527.84;5231945;28;20045;-72
2023/09/20 12:09:47;;;;;;;4.50;1.23;;;;;;;24.04;69.38;100528.81;5231734;28;20632;-72
2023/09/20 12:12:18;;;;;;;2.75;1.48;;;;;;;24.02;67.48;100543.38;5231113;28;20030;-73
2023/09/20 12:14:50;;;;;;;4.22;1.25;;;;;;;23.91;66.52;100542.06;5232192;28;20061;-73
2023/09/20 12:17:21;;;;;;;6.05;1.67;;;;;;;23.84;68.94;100536.63;5229854;28;20034;-72
2023/09/20 12:19:53;;;;;;;4.22;1.65;;;;;;;23.73;68.60;100527.25;5229768;28;20063;-71
2023/09/20 12:22:24;;;;;;;4.03;1.40;;;;;;;23.84;70.59;100523.25;5231309;28;20025;-72